Time;durP1;ratioP1;P1;durP2;ratioP2;P2;SDS_P1;SDS_P2;PMS_P1;PMS_P2;Temp;Humidity;BMP_temperature;BMP_pressure;BME280_temperature;BME280_humidity;BME280_pressure;Samples;Min_cycle;Max_cycle;Signal;HPM_P1;HPM_P2
2022/11/24 00:02:11;;;;;;;17.77;8.68;;;6.90;99.90;;;;;;6250741;23;20058;-83
2022/11/24 00:04:38;;;;;;;17.33;9.05;;;7.00;99.90;;;;;;6253123;22;20067;-84
2022/11/24 00:07:04;;;;;;;22.05;8.60;;;7.00;99.90;;;;;;6251339;23;20000;-84
2022/11/24 00:09:29;;;;;;;17.65;8.40;;;7.00;99.90;;;;;;6252211;22;20015;-83
2022/11/24 00:11:55;;;;;;;24.65;9.18;;;7.00;99.90;;;;;;6250655;23;20000;-83
2022/11/24 00:14:21;;;;;;;16.35;8.57;;;7.00;99.90;;;;;;6250742;23;20012;-83
2022/11/24 00:16:46;;;;;;;15.98;8.57;;;7.00;99.90;;;;;;6251983;23;20000;-82
2022/11/24 00:19:12;;;;;;;21.67;8.60;;;7.00;99.90;;;;;;6250658;23;20004;-84
2022/11/24 00:21:38;;;;;;;21.08;8.85;;;7.00;99.90;;;;;;6251959;23;20019;-83
2022/11/24 00:24:04;;;;;;;17.77;8.07;;;7.00;99.90;;;;;;6263872;22;20023;-84
2022/11/24 00:26:32;;;;;;;16.17;8.68;;;7.00;99.90;;;;;;6261183;22;20011;-83
2022/11/24 00:29:00;;;;;;;19.38;8.73;;;7.00;99.90;;;;;;6251427;22;20054;-84
2022/11/24 00:31:29;;;;;;;20.55;8.20;;;7.00;99.90;;;;;;6253168;22;20096;-85
2022/11/24 00:33:57;;;;;;;17.65;8.52;;;7.00;99.90;;;;;;6257726;23;20095;-83
2022/11/24 00:36:25;;;;;;;22.20;9.45;;;7.00;99.90;;;;;;6231588;23;20004;-83
2022/11/24 00:38:58;;;;;;;24.80;8.30;;;7.00;99.90;;;;;;6277417;22;20064;-83
2022/11/24 00:41:26;;;;;;;16.02;7.97;;;7.00;99.90;;;;;;6257060;22;20044;-81
2022/11/24 00:43:52;;;;;;;16.92;8.57;;;7.00;99.90;;;;;;6261882;22;20011;-82
2022/11/24 00:46:19;;;;;;;18.02;9.10;;;7.00;99.90;;;;;;6288468;22;20079;-82
2022/11/24 00:48:45;;;;;;;15.68;8.38;;;7.00;99.90;;;;;;6287167;22;20050;-82
2022/11/24 00:51:14;;;;;;;18.77;7.68;;;7.00;99.90;;;;;;6288243;22;20008;-83
2022/11/24 00:53:40;;;;;;;15.07;7.75;;;7.00;99.90;;;;;;6260129;22;20008;-82
2022/11/24 00:56:06;;;;;;;16.45;7.22;;;7.00;99.90;;;;;;6287092;22;20007;-83
2022/11/24 00:58:32;;;;;;;14.40;6.97;;;7.10;99.90;;;;;;6285834;22;20067;-84
2022/11/24 01:01:19;;;;;;;13.40;7.05;;;7.10;99.90;;;;;;6291913;22;20011;-83
2022/11/24 01:03:46;;;;;;;13.30;6.95;;;7.10;99.90;;;;;;6264913;22;20023;-84
2022/11/24 01:06:18;;;;;;;14.82;6.93;;;7.10;99.90;;;;;;6299113;22;20091;-82
2022/11/24 01:08:45;;;;;;;16.65;7.75;;;7.10;99.90;;;;;;6300866;22;20080;-84
2022/11/24 01:14:16;;;;;;;15.48;7.00;;;7.10;99.90;;;;;;6280272;22;20455;-83
2022/11/24 01:16:42;;;;;;;19.77;7.28;;;7.10;99.90;;;;;;6282431;22;20006;-82
2022/11/24 01:19:08;;;;;;;16.00;7.07;;;7.10;99.90;;;;;;6280369;22;20007;-83
2022/11/24 01:21:33;;;;;;;15.30;6.90;;;7.10;99.90;;;;;;6253423;22;20015;-83
2022/11/24 01:23:59;;;;;;;16.80;7.28;;;7.10;99.90;;;;;;6280631;22;20060;-83
2022/11/24 01:26:25;;;;;;;16.42;8.00;;;7.10;99.90;;;;;;6280613;22;20333;-83
2022/11/24 01:28:55;;;;;;;22.13;9.10;;;7.10;99.90;;;;;;6257460;22;20008;-83
2022/11/24 01:31:22;;;;;;;16.42;8.15;;;7.10;99.90;;;;;;6258610;22;20015;-84
2022/11/24 01:33:48;;;;;;;14.63;6.78;;;7.10;99.90;;;;;;6258225;22;20004;-84
2022/11/24 01:36:18;;;;;;;11.57;6.45;;;7.10;99.90;;;;;;6287462;22;20024;-84
2022/11/24 01:38:44;;;;;;;12.32;6.47;;;7.10;99.90;;;;;;6294069;22;20091;-83
2022/11/24 01:41:16;;;;;;;17.17;6.85;;;7.00;99.90;;;;;;6280159;22;20016;-82
2022/11/24 01:43:44;;;;;;;19.60;8.93;;;7.10;99.90;;;;;;6281529;22;20341;-83
2022/11/24 01:46:51;;;;;;;18.75;7.80;;;7.00;99.90;;;;;;6283830;22;19996;-83
2022/11/24 01:49:39;;;;;;;19.63;8.52;;;6.90;99.90;;;;;;6161449;23;20017;-84
2022/11/24 01:52:08;;;;;;;17.83;9.13;;;6.90;99.90;;;;;;6165896;23;20013;-83
2022/11/24 01:54:42;;;;;;;16.13;8.20;;;6.90;99.90;;;;;;6257736;22;20034;-82
2022/11/24 01:57:34;;;;;;;22.77;9.98;;;6.80;99.90;;;;;;6290193;22;20000;-83
2022/11/24 02:00:07;;;;;;;22.15;9.98;;;6.80;99.90;;;;;;6254654;22;20015;-83
2022/11/24 02:02:44;;;;;;;18.58;10.10;;;6.80;99.90;;;;;;6289699;22;20033;-84
2022/11/24 02:05:25;;;;;;;19.08;10.10;;;6.80;99.90;;;;;;6288732;22;20038;-83
2022/11/24 02:07:54;;;;;;;19.20;10.50;;;6.80;99.90;;;;;;6260562;22;20011;-83
2022/11/24 02:10:21;;;;;;;21.48;9.70;;;6.80;99.90;;;;;;6259810;22;20374;-84
2022/11/24 02:12:50;;;;;;;23.08;10.25;;;6.70;99.90;;;;;;6285157;22;20061;-83
2022/11/24 02:15:17;;;;;;;20.10;9.82;;;6.70;99.90;;;;;;6283985;22;20004;-83
2022/11/24 02:17:44;;;;;;;19.38;10.60;;;6.80;99.90;;;;;;6284509;22;20090;-83
2022/11/24 02:20:12;;;;;;;24.85;11.18;;;6.80;99.90;;;;;;6283585;22;20007;-85
2022/11/24 02:22:52;;;;;;;18.88;10.45;;;6.80;99.90;;;;;;6283818;22;20507;-82
2022/11/24 02:25:34;;;;;;;20.48;10.57;;;6.80;99.90;;;;;;6257637;22;20003;-83
2022/11/24 02:28:03;;;;;;;23.45;9.77;;;6.80;99.90;;;;;;6284395;22;20083;-83
2022/11/24 02:30:29;;;;;;;21.25;9.98;;;6.70;99.90;;;;;;6285241;22;19996;-82
2022/11/24 02:32:56;;;;;;;21.08;10.95;;;6.70;99.90;;;;;;6258619;22;20016;-83
2022/11/24 02:35:22;;;;;;;20.63;10.93;;;6.60;99.90;;;;;;6285302;22;20004;-83
2022/11/24 02:37:48;;;;;;;21.08;11.27;;;6.60;99.90;;;;;;6285211;22;20500;-84
2022/11/24 02:40:23;;;;;;;19.27;10.73;;;6.50;99.90;;;;;;6284089;22;20507;-83
2022/11/24 02:43:00;;;;;;;18.25;10.95;;;6.40;99.90;;;;;;6284978;22;20000;-83
2022/11/24 02:45:27;;;;;;;18.55;11.32;;;6.40;99.90;;;;;;6285381;22;20007;-84
2022/11/24 02:47:52;;;;;;;21.85;11.68;;;6.40;99.90;;;;;;6289583;22;19999;-84
2022/11/24 02:50:18;;;;;;;24.13;12.85;;;6.40;99.90;;;;;;6294476;22;20024;-83
2022/11/24 02:52:44;;;;;;;23.20;13.00;;;6.30;99.90;;;;;;6302401;22;19991;-83
2022/11/24 02:55:10;;;;;;;31.45;14.55;;;6.30;99.90;;;;;;6303043;22;20072;-81
2022/11/24 02:57:35;;;;;;;26.05;13.82;;;6.30;99.90;;;;;;6237256;22;20342;-83
2022/11/24 03:00:01;;;;;;;28.52;14.85;;;6.30;99.90;;;;;;6258269;22;20015;-82
2022/11/24 03:02:27;;;;;;;28.95;15.85;;;6.30;99.90;;;;;;6283580;22;20004;-84
2022/11/24 03:04:53;;;;;;;30.10;15.73;;;6.30;99.90;;;;;;6256716;22;20042;-83
2022/11/24 03:07:19;;;;;;;30.30;15.80;;;6.30;99.90;;;;;;6295086;22;19984;-80
2022/11/24 03:09:44;;;;;;;28.98;14.98;;;6.20;99.90;;;;;;6291711;22;20008;-83
2022/11/24 03:12:10;;;;;;;28.85;16.08;;;6.20;99.90;;;;;;6294013;22;20022;-84
2022/11/24 03:14:36;;;;;;;29.85;16.58;;;6.20;99.90;;;;;;6301469;22;20034;-82
2022/11/24 03:17:02;;;;;;;28.40;15.20;;;6.10;99.90;;;;;;6285537;22;20312;-82
2022/11/24 03:19:30;;;;;;;32.00;15.60;;;6.10;99.90;;;;;;6283403;22;20006;-83
2022/11/24 03:21:55;;;;;;;31.20;15.10;;;6.10;99.90;;;;;;6284002;22;20003;-83
2022/11/24 03:24:21;;;;;;;35.25;16.92;;;6.10;99.90;;;;;;6260878;22;20094;-83
2022/11/24 03:26:47;;;;;;;28.33;14.50;;;6.20;99.90;;;;;;6262484;22;20007;-83
2022/11/24 03:29:13;;;;;;;26.25;14.95;;;6.20;99.90;;;;;;6287849;22;20027;-83
2022/11/24 03:31:38;;;;;;;28.60;15.25;;;6.20;99.90;;;;;;6259783;22;20000;-84
2022/11/24 03:34:04;;;;;;;29.13;14.40;;;6.30;99.90;;;;;;6283847;22;20000;-82
2022/11/24 03:36:30;;;;;;;27.55;14.07;;;6.30;99.90;;;;;;6263086;22;19992;-84
2022/11/24 03:38:56;;;;;;;27.55;14.93;;;6.20;99.90;;;;;;6265857;22;20026;-83
2022/11/24 03:41:21;;;;;;;22.65;12.68;;;6.20;99.90;;;;;;6295099;22;19999;-81
2022/11/24 03:43:47;;;;;;;29.40;13.90;;;6.20;99.90;;;;;;6266109;22;20004;-80
2022/11/24 03:46:13;;;;;;;29.05;14.45;;;6.20;99.90;;;;;;6298489;22;20042;-82
2022/11/24 03:48:39;;;;;;;28.15;13.07;;;6.20;99.90;;;;;;6297565;22;20000;-83
2022/11/24 03:51:05;;;;;;;26.40;13.38;;;6.20;99.90;;;;;;6294334;22;20000;-82
2022/11/24 03:53:32;;;;;;;22.52;13.10;;;6.20;99.90;;;;;;6292653;22;20491;-82
2022/11/24 03:55:59;;;;;;;22.52;12.27;;;6.20;99.90;;;;;;6285026;22;20019;-84
2022/11/24 03:58:25;;;;;;;23.58;12.52;;;6.10;99.90;;;;;;6266879;22;20011;-83
2022/11/24 04:00:52;;;;;;;22.35;12.52;;;6.00;99.90;;;;;;6270284;22;20083;-82
2022/11/24 04:03:18;;;;;;;22.17;12.13;;;5.90;99.90;;;;;;6298011;22;20008;-82
2022/11/24 04:05:45;;;;;;;23.38;12.55;;;5.80;99.90;;;;;;6272839;22;19991;-83
2022/11/24 04:08:11;;;;;;;22.25;12.00;;;5.90;99.90;;;;;;6293526;22;20014;-81
2022/11/24 04:10:38;;;;;;;23.88;11.85;;;5.80;99.90;;;;;;6294552;22;20031;-82
2022/11/24 04:13:10;;;;;;;21.27;11.80;;;5.70;99.90;;;;;;6292948;22;20023;-82
2022/11/24 04:15:39;;;;;;;24.15;13.20;;;5.70;99.90;;;;;;6292794;22;20000;-82
2022/11/24 04:18:05;;;;;;;25.98;13.45;;;5.60;99.90;;;;;;6284480;22;20026;-81
2022/11/24 04:20:30;;;;;;;24.00;12.50;;;5.60;99.90;;;;;;6282597;22;20016;-82
2022/11/24 04:22:56;;;;;;;25.58;12.48;;;5.50;99.90;;;;;;6281620;22;20379;-83
2022/11/24 04:25:22;;;;;;;25.17;12.55;;;5.50;99.90;;;;;;6282075;22;20587;-82
2022/11/24 04:27:51;;;;;;;25.98;13.45;;;5.40;99.90;;;;;;6282218;22;20007;-82
2022/11/24 04:30:19;;;;;;;24.77;12.68;;;5.40;99.90;;;;;;6282722;22;20059;-83
2022/11/24 04:32:44;;;;;;;29.45;13.07;;;5.30;99.90;;;;;;6294059;22;19987;-80
2022/11/24 04:35:11;;;;;;;27.02;14.25;;;5.30;99.90;;;;;;6269750;22;20000;-81
2022/11/24 04:37:37;;;;;;;27.90;13.50;;;5.30;99.90;;;;;;6286291;22;20042;-82
2022/11/24 04:40:05;;;;;;;26.95;13.60;;;5.30;99.90;;;;;;6236866;22;20008;-81
2022/11/24 04:42:31;;;;;;;28.83;13.27;;;5.20;99.90;;;;;;6288014;22;20007;-82
2022/11/24 04:44:56;;;;;;;26.45;12.57;;;5.20;99.90;;;;;;6286728;22;20053;-82
2022/11/24 04:47:24;;;;;;;28.90;13.90;;;5.20;99.90;;;;;;6283944;22;20130;-83
2022/11/24 04:49:50;;;;;;;26.15;13.82;;;5.20;99.90;;;;;;6288695;22;20469;-83
2022/11/24 04:52:18;;;;;;;28.50;13.05;;;5.20;99.90;;;;;;6291778;22;20003;-83
2022/11/24 04:54:45;;;;;;;28.27;13.48;;;5.20;99.90;;;;;;6293966;22;20012;-84
2022/11/24 04:57:18;;;;;;;25.25;13.77;;;5.20;99.90;;;;;;6289621;22;20034;-81
2022/11/24 04:59:45;;;;;;;29.50;13.20;;;5.20;99.90;;;;;;6291336;22;20003;-80
2022/11/24 05:02:12;;;;;;;28.92;13.00;;;5.20;99.90;;;;;;6290851;22;20061;-81
2022/11/24 05:04:38;;;;;;;25.60;13.25;;;5.20;99.90;;;;;;6293327;22;20373;-79
2022/11/24 05:07:04;;;;;;;28.63;14.48;;;5.30;99.90;;;;;;6290218;22;20007;-80
2022/11/24 05:09:30;;;;;;;27.42;12.93;;;5.30;99.90;;;;;;6289276;22;20004;-82
2022/11/24 05:11:56;;;;;;;24.40;12.48;;;5.30;99.90;;;;;;6281726;22;20434;-83
2022/11/24 05:14:22;;;;;;;31.17;12.98;;;5.30;99.90;;;;;;6284343;22;20008;-82
2022/11/24 05:16:47;;;;;;;26.75;13.50;;;5.30;99.90;;;;;;6259290;22;20019;-81
2022/11/24 05:19:15;;;;;;;33.03;13.70;;;5.30;99.90;;;;;;6295194;22;20004;-82
2022/11/24 05:21:41;;;;;;;27.48;13.75;;;5.30;99.90;;;;;;6260292;22;20019;-82
2022/11/24 05:24:06;;;;;;;26.10;13.32;;;5.20;99.90;;;;;;6292762;22;20000;-82
2022/11/24 05:26:34;;;;;;;25.40;13.50;;;5.20;99.90;;;;;;6294187;22;20004;-81
2022/11/24 05:29:00;;;;;;;22.50;12.43;;;5.20;99.90;;;;;;6267351;22;20067;-81
2022/11/24 05:31:25;;;;;;;27.90;14.10;;;5.20;99.90;;;;;;6292064;22;19999;-81
2022/11/24 05:33:51;;;;;;;27.17;13.45;;;5.20;99.90;;;;;;6295374;22;20029;-81
2022/11/24 05:39:01;;;;;;;23.50;12.07;;;5.20;99.90;;;;;;6270236;22;20027;-81
2022/11/24 05:41:27;;;;;;;27.95;13.40;;;5.20;99.90;;;;;;6262731;23;20026;-81
2022/11/24 05:43:53;;;;;;;21.50;11.85;;;5.20;99.90;;;;;;6263664;23;20008;-83
2022/11/24 05:46:18;;;;;;;23.80;11.73;;;5.20;99.90;;;;;;6260313;23;20350;-81
2022/11/24 05:48:44;;;;;;;23.45;11.30;;;5.20;99.90;;;;;;6262075;23;19996;-80
2022/11/24 05:51:10;;;;;;;20.55;11.60;;;5.20;99.90;;;;;;6269004;22;20118;-80
2022/11/24 05:53:36;;;;;;;20.02;11.30;;;5.20;99.90;;;;;;6270270;23;20301;-79
2022/11/24 05:56:03;;;;;;;20.52;11.48;;;5.20;99.90;;;;;;6271962;22;19988;-79
2022/11/24 05:58:29;;;;;;;21.85;10.52;;;5.30;99.90;;;;;;6271964;22;20027;-80
2022/11/24 06:00:57;;;;;;;21.25;10.15;;;5.30;99.90;;;;;;6271653;22;20000;-82
2022/11/24 06:03:23;;;;;;;22.30;10.68;;;5.30;99.90;;;;;;6271960;22;20008;-81
2022/11/24 06:05:49;;;;;;;24.13;9.95;;;5.30;99.90;;;;;;6271230;22;20419;-81
2022/11/24 06:08:15;;;;;;;21.13;10.65;;;5.30;99.90;;;;;;6271104;22;20012;-81
2022/11/24 06:10:41;;;;;;;20.13;9.52;;;5.30;99.90;;;;;;6269599;23;20003;-80
2022/11/24 06:13:07;;;;;;;16.83;9.35;;;5.30;99.90;;;;;;6265165;23;20015;-81
2022/11/24 06:15:35;;;;;;;16.10;9.73;;;5.30;99.90;;;;;;6258904;22;20004;-80
2022/11/24 06:18:01;;;;;;;20.80;10.60;;;5.30;99.90;;;;;;6256885;23;20008;-81
2022/11/24 06:20:27;;;;;;;16.25;9.32;;;5.30;99.90;;;;;;6255871;23;20000;-81
2022/11/24 06:22:57;;;;;;;17.73;8.82;;;5.30;99.90;;;;;;6255634;23;20063;-83
2022/11/24 06:25:23;;;;;;;17.20;8.77;;;5.30;99.90;;;;;;6257646;23;20027;-82
2022/11/24 06:27:49;;;;;;;16.77;8.98;;;5.30;99.90;;;;;;6259721;22;20075;-82
2022/11/24 06:30:15;;;;;;;17.95;8.77;;;5.40;99.90;;;;;;6258439;22;20023;-81
2022/11/24 06:32:43;;;;;;;13.63;8.30;;;5.40;99.90;;;;;;6257450;22;20019;-83
2022/11/24 06:35:13;;;;;;;13.48;8.15;;;5.40;99.90;;;;;;6259517;23;19996;-83
2022/11/24 06:37:39;;;;;;;12.90;8.05;;;5.50;99.90;;;;;;6258661;22;20056;-82
2022/11/24 06:40:07;;;;;;;15.35;8.23;;;5.50;99.90;;;;;;6268939;22;20009;-82
2022/11/24 06:42:34;;;;;;;18.25;8.27;;;5.60;99.90;;;;;;6268600;23;20008;-82
2022/11/24 06:45:00;;;;;;;15.90;8.20;;;5.60;99.90;;;;;;6260198;22;19996;-82
2022/11/24 06:47:26;;;;;;;13.13;7.38;;;5.60;99.90;;;;;;6259289;22;20027;-84
2022/11/24 06:49:51;;;;;;;15.95;8.70;;;5.70;99.90;;;;;;6257378;23;20040;-82
2022/11/24 06:52:17;;;;;;;11.40;7.43;;;5.70;99.90;;;;;;6259264;22;20004;-83
2022/11/24 06:54:43;;;;;;;13.00;7.32;;;5.80;99.90;;;;;;6260530;22;20008;-82
2022/11/24 06:57:10;;;;;;;17.27;6.88;;;5.80;99.90;;;;;;6262683;23;20011;-83
2022/11/24 06:59:35;;;;;;;12.00;7.13;;;5.80;99.90;;;;;;6260904;22;20000;-83
2022/11/24 07:02:01;;;;;;;13.52;6.97;;;5.90;99.90;;;;;;6262757;22;20008;-81
2022/11/24 07:04:27;;;;;;;12.60;6.50;;;5.90;99.90;;;;;;6263716;22;19996;-80
2022/11/24 07:06:53;;;;;;;11.70;6.60;;;6.00;99.90;;;;;;6266064;22;20004;-79
2022/11/24 07:09:18;;;;;;;13.75;7.07;;;6.10;99.90;;;;;;6269807;22;20048;-80
2022/11/24 07:11:45;;;;;;;12.60;7.25;;;6.10;99.90;;;;;;6272910;22;20027;-79
2022/11/24 07:14:11;;;;;;;10.68;6.38;;;6.20;99.90;;;;;;6272281;22;19988;-80
2022/11/24 07:16:38;;;;;;;11.32;6.15;;;6.30;99.90;;;;;;6273141;22;19996;-80
2022/11/24 07:19:05;;;;;;;10.73;5.78;;;6.40;99.90;;;;;;6272629;22;19984;-82
2022/11/24 07:21:32;;;;;;;10.95;5.82;;;6.50;99.90;;;;;;6273493;22;20008;-80
2022/11/24 07:23:59;;;;;;;9.70;5.82;;;6.50;99.90;;;;;;6273500;22;20071;-80
2022/11/24 07:26:25;;;;;;;11.60;6.03;;;6.60;99.90;;;;;;6271993;22;20000;-81
2022/11/24 07:28:51;;;;;;;12.35;6.00;;;6.60;99.90;;;;;;6270214;22;20004;-80
2022/11/24 07:31:19;;;;;;;12.38;6.10;;;6.70;99.90;;;;;;6269556;22;19995;-80
2022/11/24 07:33:53;;;;;;;10.27;5.75;;;6.70;99.90;;;;;;6267831;22;20027;-81
2022/11/24 07:36:20;;;;;;;14.30;5.53;;;6.80;99.90;;;;;;6263260;23;20023;-83
2022/11/24 07:38:46;;;;;;;11.10;5.30;;;6.80;99.90;;;;;;6261830;22;20008;-80
2022/11/24 07:41:14;;;;;;;11.43;5.03;;;6.80;99.90;;;;;;6263903;22;20004;-79
2022/11/24 07:43:40;;;;;;;12.82;5.38;;;6.80;99.90;;;;;;6262227;23;20431;-81
2022/11/24 07:46:09;;;;;;;10.73;5.75;;;6.80;99.90;;;;;;6261195;23;20043;-81
2022/11/24 07:48:35;;;;;;;10.20;5.00;;;6.90;99.90;;;;;;6264606;22;19988;-81
2022/11/24 07:51:02;;;;;;;13.93;5.57;;;6.90;99.90;;;;;;6263147;23;20008;-82
2022/11/24 07:53:29;;;;;;;7.72;4.90;;;7.00;99.90;;;;;;6262629;23;20062;-82
2022/11/24 07:56:01;;;;;;;10.02;5.20;;;7.00;99.90;;;;;;6266411;23;20008;-81
2022/11/24 07:58:28;;;;;;;10.20;6.00;;;7.10;99.90;;;;;;6266476;22;20056;-81
2022/11/24 08:00:55;;;;;;;7.88;5.43;;;7.10;99.90;;;;;;6267103;22;20004;-83
2022/11/24 08:03:21;;;;;;;9.35;4.57;;;7.20;99.90;;;;;;6266768;23;20004;-82
2022/11/24 08:05:57;;;;;;;6.80;4.68;;;7.20;99.90;;;;;;6241154;23;20000;-80
2022/11/24 08:08:25;;;;;;;7.32;3.80;;;7.30;99.90;;;;;;6265236;23;20000;-81
2022/11/24 08:10:51;;;;;;;8.77;4.10;;;7.30;99.90;;;;;;6267298;22;20004;-80
2022/11/24 08:13:17;;;;;;;5.85;4.10;;;7.30;99.90;;;;;;6270007;23;20051;-81
2022/11/24 08:15:44;;;;;;;8.20;4.20;;;7.30;99.90;;;;;;6267981;23;19997;-81
2022/11/24 08:18:10;;;;;;;5.85;3.75;;;7.30;99.90;;;;;;6264744;23;20034;-80
2022/11/24 08:20:36;;;;;;;6.15;4.18;;;7.30;99.90;;;;;;6263475;22;20007;-80
2022/11/24 08:23:02;;;;;;;9.02;4.10;;;7.30;99.90;;;;;;6265050;22;20004;-82
2022/11/24 08:25:32;;;;;;;8.50;3.60;;;7.30;99.90;;;;;;6262745;23;19996;-81
2022/11/24 08:27:59;;;;;;;7.57;3.97;;;7.30;99.90;;;;;;6267418;22;20030;-81
2022/11/24 08:30:24;;;;;;;5.82;3.63;;;7.30;99.90;;;;;;6263850;23;19996;-82
2022/11/24 08:32:52;;;;;;;8.73;3.85;;;7.30;99.90;;;;;;6265124;23;20011;-79
2022/11/24 08:35:18;;;;;;;5.60;3.75;;;7.30;99.90;;;;;;6265679;22;20000;-82
2022/11/24 08:37:44;;;;;;;8.52;4.00;;;7.30;99.90;;;;;;6263389;23;20011;-81
2022/11/24 08:40:10;;;;;;;11.05;3.35;;;7.30;99.90;;;;;;6265813;22;19996;-82
2022/11/24 08:42:36;;;;;;;5.53;3.50;;;7.20;99.90;;;;;;6265593;22;20028;-80
2022/11/24 08:45:03;;;;;;;5.47;3.40;;;7.20;99.90;;;;;;6265045;22;19992;-82
2022/11/24 08:47:29;;;;;;;5.38;3.25;;;7.10;99.90;;;;;;6265591;23;20004;-82
2022/11/24 08:49:54;;;;;;;4.93;3.30;;;7.10;99.90;;;;;;6263993;23;19999;-81
2022/11/24 08:52:20;;;;;;;4.90;2.97;;;7.00;99.90;;;;;;6264679;23;20008;-82
2022/11/24 08:54:46;;;;;;;4.97;2.88;;;7.10;99.90;;;;;;6264294;22;20036;-82
2022/11/24 08:57:15;;;;;;;6.80;3.75;;;7.10;99.90;;;;;;6265317;22;20458;-82
2022/11/24 08:59:41;;;;;;;3.53;2.50;;;7.10;99.90;;;;;;6266842;22;19988;-82
2022/11/24 09:02:11;;;;;;;5.32;2.50;;;7.10;99.90;;;;;;6272723;22;20020;-79
2022/11/24 09:04:38;;;;;;;4.95;2.92;;;7.10;99.90;;;;;;6272950;22;20048;-81
2022/11/24 09:07:04;;;;;;;5.78;2.55;;;7.10;99.90;;;;;;6273255;22;19992;-80
2022/11/24 09:09:30;;;;;;;6.32;2.88;;;7.10;99.90;;;;;;6271605;22;20008;-80
2022/11/24 09:11:56;;;;;;;6.18;2.80;;;7.10;99.90;;;;;;6271803;22;19988;-81
2022/11/24 09:14:21;;;;;;;4.25;2.70;;;7.10;99.90;;;;;;6265071;23;20020;-82
2022/11/24 09:16:47;;;;;;;3.53;2.33;;;7.20;99.90;;;;;;6264103;22;20003;-81
2022/11/24 09:19:13;;;;;;;3.28;2.40;;;7.10;99.90;;;;;;6262458;23;20012;-80
2022/11/24 09:21:39;;;;;;;7.13;3.10;;;7.20;99.90;;;;;;6260574;23;20023;-80
2022/11/24 09:24:06;;;;;;;4.20;2.63;;;7.20;99.90;;;;;;6263969;23;20080;-82
2022/11/24 09:26:34;;;;;;;4.78;2.78;;;7.20;99.90;;;;;;6262595;22;20004;-81
2022/11/24 09:29:01;;;;;;;4.05;2.22;;;7.20;99.90;;;;;;6261182;22;20004;-82
2022/11/24 09:31:30;;;;;;;3.30;2.05;;;7.30;99.90;;;;;;6264053;22;20011;-80
2022/11/24 09:33:56;;;;;;;4.13;2.60;;;7.30;99.90;;;;;;6262260;23;20008;-81
2022/11/24 09:36:23;;;;;;;5.35;2.17;;;7.30;99.90;;;;;;6259886;23;20007;-81
2022/11/24 09:38:49;;;;;;;3.88;2.28;;;7.30;99.90;;;;;;6261697;22;20019;-79
2022/11/24 09:41:20;;;;;;;3.85;2.25;;;7.40;99.90;;;;;;6262464;23;20052;-81
2022/11/24 09:43:55;;;;;;;14.50;3.25;;;7.50;99.90;;;;;;6263085;23;20005;-80
2022/11/24 09:46:25;;;;;;;;;;;7.60;99.90;;;;;;6266853;22;19992;-80
2022/11/24 09:48:55;;;;;;;3.22;2.42;;;7.60;99.90;;;;;;6264644;22;19914;-82
2022/11/24 09:51:27;;;;;;;2.83;2.22;;;7.70;99.90;;;;;;6262645;22;19992;-81
2022/11/24 09:53:55;;;;;;;4.60;1.80;;;7.80;99.90;;;;;;6261241;23;20065;-81
2022/11/24 09:56:29;;;;;;;2.75;1.70;;;7.90;99.90;;;;;;6264549;22;20073;-80
2022/11/24 09:59:13;;;;;;;3.03;2.08;;;8.00;99.90;;;;;;6263893;22;20008;-81
2022/11/24 10:01:41;;;;;;;3.15;2.00;;;8.10;99.90;;;;;;6263490;22;20011;-80
2022/11/24 10:04:27;;;;;;;7.15;1.90;;;8.10;99.90;;;;;;6238363;23;20000;-81
2022/11/24 10:07:26;;;;;;;3.85;1.45;;;8.20;99.90;;;;;;6265392;22;20007;-80
2022/11/24 10:09:52;;;;;;;3.25;1.50;;;8.20;99.90;;;;;;6264490;23;20056;-80
2022/11/24 10:12:33;;;;;;;4.28;1.70;;;8.20;99.90;;;;;;6264323;22;20000;-80
2022/11/24 10:15:20;;;;;;;3.50;1.85;;;8.30;99.90;;;;;;6264009;23;20031;-82
2022/11/24 10:18:09;;;;;;;5.07;2.03;;;8.30;99.90;;;;;;6262519;22;20004;-80
2022/11/24 10:21:08;;;;;;;4.10;2.20;;;8.30;99.90;;;;;;6260157;23;20008;-82
2022/11/24 10:23:49;;;;;;;5.78;2.70;;;8.30;99.90;;;;;;6258764;23;20031;-82
2022/11/24 10:26:35;;;;;;;4.78;2.55;;;8.40;99.90;;;;;;6259266;22;20000;-81
2022/11/24 10:29:26;;;;;;;7.68;3.22;;;8.50;99.90;;;;;;6258753;23;20000;-82
2022/11/24 10:31:54;;;;;;;8.20;3.17;;;8.40;99.90;;;;;;6260087;22;20031;-83
2022/11/24 10:34:42;;;;;;;7.90;3.38;;;8.40;99.90;;;;;;6261261;22;20000;-81
2022/11/24 10:37:31;;;;;;;6.70;3.28;;;8.50;99.90;;;;;;6260250;23;20017;-82
2022/11/24 10:40:09;;;;;;;8.75;3.70;;;8.50;99.90;;;;;;6244015;22;20011;-80
2022/11/24 10:42:36;;;;;;;8.35;4.20;;;8.50;99.90;;;;;;6273450;23;20050;-82
2022/11/24 10:45:17;;;;;;;11.05;4.20;;;8.40;99.90;;;;;;6274268;22;20000;-80
2022/11/24 10:47:44;;;;;;;8.98;4.32;;;8.40;99.90;;;;;;6274615;22;20023;-80
2022/11/24 10:50:19;;;;;;;11.48;4.63;;;8.40;99.90;;;;;;6274537;22;20015;-81
2022/11/24 10:52:59;;;;;;;17.27;5.65;;;8.40;99.90;;;;;;6272594;22;20326;-84
2022/11/24 10:55:25;;;;;;;11.70;4.38;;;8.40;99.90;;;;;;6272699;22;20008;-80
2022/11/24 10:57:51;;;;;;;11.23;4.82;;;8.50;99.90;;;;;;6273778;22;20057;-81
2022/11/24 11:00:20;;;;;;;11.15;5.05;;;8.50;99.90;;;;;;6269241;23;20004;-80
2022/11/24 11:03:10;;;;;;;9.25;5.18;;;8.60;99.90;;;;;;6270306;22;20027;-83
2022/11/24 11:05:43;;;;;;;13.48;5.55;;;8.80;99.90;;;;;;6266594;23;20159;-82
2022/11/24 11:08:19;;;;;;;10.27;5.40;;;8.80;99.90;;;;;;6261025;22;20060;-81
2022/11/24 11:10:47;;;;;;;9.68;4.75;;;8.80;99.90;;;;;;6260741;22;20004;-81
2022/11/24 11:13:28;;;;;;;10.30;5.07;;;8.80;99.90;;;;;;6263167;22;20192;-82
2022/11/24 11:15:56;;;;;;;9.40;5.63;;;8.80;99.90;;;;;;6261677;22;20007;-81
2022/11/24 11:18:29;;;;;;;13.63;6.00;;;8.80;99.90;;;;;;6259499;23;20000;-80
2022/11/24 11:21:00;;;;;;;14.23;6.22;;;8.70;99.90;;;;;;6262072;22;20046;-82
2022/11/24 11:23:33;;;;;;;12.38;6.03;;;8.60;99.90;;;;;;6263076;22;20004;-81
2022/11/24 11:26:26;;;;;;;13.75;3.92;;;8.60;99.90;;;;;;6262537;22;20004;-82
2022/11/24 11:29:07;;;;;;;12.15;4.45;;;8.50;99.90;;;;;;6269647;23;20026;-79
2022/11/24 11:31:35;;;;;;;7.15;4.05;;;8.40;99.90;;;;;;6265385;23;20000;-81
2022/11/24 11:34:09;;;;;;;7.47;4.25;;;8.40;99.90;;;;;;6261947;22;20094;-81
2022/11/24 11:36:39;;;;;;;;;;;8.40;99.90;;;;;;6262224;22;20038;-82
2022/11/24 11:39:05;;;;;;;7.05;4.70;;;8.40;99.90;;;;;;6257402;22;19908;-87
2022/11/24 11:41:42;;;;;;;12.98;5.75;;;8.40;99.90;;;;;;6274012;22;20012;-87
2022/11/24 11:44:34;;;;;;;17.17;6.65;;;8.40;99.90;;;;;;6274453;22;19996;-87
2022/11/24 11:47:17;;;;;;;15.48;7.07;;;8.30;99.90;;;;;;6248176;22;20004;-87
2022/11/24 11:49:51;;;;;;;16.73;8.52;;;8.40;99.90;;;;;;6274235;22;19992;-89
2022/11/24 11:52:51;;;;;;;12.45;7.13;;;8.40;99.90;;;;;;6275434;22;19999;-90
2022/11/24 11:55:32;;;;;;;14.85;7.45;;;8.40;99.90;;;;;;6248646;22;20012;-85
2022/11/24 11:58:12;;;;;;;18.67;6.85;;;8.40;99.90;;;;;;6274487;22;19992;-88
2022/11/24 12:00:51;;;;;;;15.32;7.05;;;8.40;99.90;;;;;;6248317;22;20008;-86
2022/11/24 12:03:33;;;;;;;13.63;6.40;;;8.30;99.90;;;;;;6274418;22;20007;-86
2022/11/24 12:06:02;;;;;;;11.82;7.15;;;8.30;99.90;;;;;;6223376;22;20000;-87
2022/11/24 12:09:07;;;;;;;14.43;6.90;;;8.30;99.90;;;;;;6248336;22;19996;-90
2022/11/24 12:12:15;;;;;;;15.68;7.07;;;8.30;99.90;;;;;;6248396;22;20079;-89
2022/11/24 12:15:01;;;;;;;13.25;6.53;;;8.30;99.90;;;;;;6188778;23;20004;-87
2022/11/24 12:17:51;;;;;;;12.48;5.93;;;8.20;99.90;;;;;;6220049;23;20017;-84
2022/11/24 12:20:20;;;;;;;10.95;6.07;;;8.10;99.90;;;;;;6192088;23;19990;-86
2022/11/24 12:22:52;;;;;;;11.23;5.80;;;8.10;99.90;;;;;;6163137;23;20016;-87
2022/11/24 12:25:24;;;;;;;17.17;5.63;;;8.10;99.90;;;;;;6187980;23;19989;-87
2022/11/24 12:28:03;;;;;;;13.65;6.28;;;8.20;99.90;;;;;;6188622;23;20001;-89
2022/11/24 12:30:55;;;;;;;11.95;5.10;;;8.10;99.90;;;;;;6213108;23;20061;-87
2022/11/24 12:33:48;;;;;;;9.50;4.82;;;8.20;99.90;;;;;;6188206;23;20017;-87
2022/11/24 12:36:45;;;;;;;11.98;5.18;;;8.20;99.90;;;;;;6188694;23;20001;-88
2022/11/24 12:39:28;;;;;;;12.43;4.53;;;8.10;99.90;;;;;;6213271;23;20001;-88
2022/11/24 12:42:16;;;;;;;8.88;4.40;;;8.10;99.90;;;;;;6187808;23;20005;-89
2022/11/24 12:45:21;;;;;;;10.13;4.30;;;8.10;99.90;;;;;;6163664;23;20009;-89
2022/11/24 12:47:52;;;;;;;10.93;5.03;;;8.10;99.90;;;;;;6094181;23;20053;-88
2022/11/24 12:50:22;;;;;;;9.75;4.03;;;8.20;99.90;;;;;;6094663;23;20050;-88
2022/11/24 12:52:52;;;;;;;7.72;3.80;;;8.30;99.90;;;;;;6136151;23;19989;-87
2022/11/24 12:55:22;;;;;;;8.32;4.68;;;8.30;99.90;;;;;;6188258;23;20003;-87
2022/11/24 12:58:02;;;;;;;11.48;4.50;;;8.30;99.90;;;;;;6213378;23;20007;-87
2022/11/24 13:03:47;;;;;;;9.10;4.65;;;8.30;99.90;;;;;;6244650;22;20036;-84
2022/11/24 13:06:34;;;;;;;13.65;4.97;;;8.40;99.90;;;;;;6192758;23;20039;-84
2022/11/24 13:09:11;;;;;;;11.13;5.47;;;8.50;99.90;;;;;;6217019;23;20015;-85
2022/11/24 13:11:40;;;;;;;17.42;5.22;;;8.40;99.90;;;;;;6243317;23;20009;-84
2022/11/24 13:14:21;;;;;;;14.00;5.18;;;8.40;99.90;;;;;;6243115;23;20015;-86